CheckWX is a tool to help pilots better visualize weather data.  It is not intended as a substitute for an official pre-flight weather briefing.

08:22:04 UTC

KSFO TAF
San Francisco International Airport
San Francisco, California, USA
KSFO 190536Z 1906/2012 10010KT P6SM BKN200 FM192100 06003KT P6SM BKN250 FM200300 28004KT P6SM SCT250 FM200800 VRB03KT P6SM SCT250

Jan-19@
06:00 UTC

Jan-19 @ 06:00 UTC

Jan-19@
21:00 UTC

Jan-19 @ 21:00 UTC

KSFO 190536Z 1906/2012 10010KT P6SM BKN200
Wind
  • 100° at 10 KTS
Cloud Levels
  • Broken at 20,000' AGL

Jan-19@
21:00 UTC

Jan-19 @ 21:00 UTC

Jan-20@
03:00 UTC

Jan-20 @ 03:00 UTC

FM192100 06003KT P6SM BKN250

From

From Standard forecast or significant change

Wind
  • 060° at 3 KTS
Cloud Levels
  • Broken at 25,000' AGL

Jan-20@
03:00 UTC

Jan-20 @ 03:00 UTC

Jan-20@
08:00 UTC

Jan-20 @ 08:00 UTC

FM200300 28004KT P6SM SCT250

From

From Standard forecast or significant change

Wind
  • 280° at 4 KTS
Cloud Levels
  • Scattered at 25,000' AGL

Jan-20@
08:00 UTC

Jan-20 @ 08:00 UTC

Jan-20@
12:00 UTC

Jan-20 @ 12:00 UTC

FM200800 VRB03KT P6SM SCT250

From

From Standard forecast or significant change

Wind
  • Variable at 3 KTS
Cloud Levels
  • Scattered at 25,000' AGL